sensor_id;sensor_type;location;lat;lon;timestamp;P1;durP1;ratioP1;P2;durP2;ratioP2
6947;SDS011;3513;47.664;9.162;2024-01-16T00:02:11;20.40;;;10.10;;
6947;SDS011;3513;47.664;9.162;2024-01-16T00:04:37;15.80;;;8.37;;
6947;SDS011;3513;47.664;9.162;2024-01-16T00:07:03;20.20;;;8.53;;
6947;SDS011;3513;47.664;9.162;2024-01-16T00:09:29;17.42;;;8.70;;
6947;SDS011;3513;47.664;9.162;2024-01-16T00:11:57;18.17;;;9.88;;
6947;SDS011;3513;47.664;9.162;2024-01-16T00:14:22;18.53;;;9.20;;
6947;SDS011;3513;47.664;9.162;2024-01-16T00:16:48;14.30;;;8.03;;
6947;SDS011;3513;47.664;9.162;2024-01-16T00:19:14;17.47;;;9.27;;
6947;SDS011;3513;47.664;9.162;2024-01-16T00:21:43;18.67;;;9.17;;
6947;SDS011;3513;47.664;9.162;2024-01-16T00:24:12;15.77;;;8.52;;
6947;SDS011;3513;47.664;9.162;2024-01-16T00:26:38;20.15;;;9.60;;
6947;SDS011;3513;47.664;9.162;2024-01-16T00:29:04;19.73;;;9.77;;
6947;SDS011;3513;47.664;9.162;2024-01-16T00:31:30;16.77;;;9.27;;
6947;SDS011;3513;47.664;9.162;2024-01-16T00:33:55;21.33;;;9.83;;
6947;SDS011;3513;47.664;9.162;2024-01-16T00:36:21;20.47;;;9.40;;
6947;SDS011;3513;47.664;9.162;2024-01-16T00:38:46;16.87;;;9.80;;
6947;SDS011;3513;47.664;9.162;2024-01-16T00:41:12;25.83;;;10.53;;
6947;SDS011;3513;47.664;9.162;2024-01-16T00:43:40;18.73;;;9.52;;
6947;SDS011;3513;47.664;9.162;2024-01-16T00:46:05;21.10;;;8.40;;
6947;SDS011;3513;47.664;9.162;2024-01-16T00:48:31;17.93;;;9.03;;
6947;SDS011;3513;47.664;9.162;2024-01-16T00:50:57;19.10;;;9.70;;
6947;SDS011;3513;47.664;9.162;2024-01-16T00:53:22;15.23;;;9.20;;
6947;SDS011;3513;47.664;9.162;2024-01-16T00:55:48;18.83;;;8.83;;
6947;SDS011;3513;47.664;9.162;2024-01-16T00:58:13;14.00;;;6.80;;
6947;SDS011;3513;47.664;9.162;2024-01-16T01:00:39;13.40;;;7.40;;
6947;SDS011;3513;47.664;9.162;2024-01-16T01:03:04;18.33;;;7.33;;
6947;SDS011;3513;47.664;9.162;2024-01-16T01:05:30;21.13;;;7.53;;
6947;SDS011;3513;47.664;9.162;2024-01-16T01:07:55;17.03;;;7.20;;
6947;SDS011;3513;47.664;9.162;2024-01-16T01:10:21;15.83;;;7.57;;
6947;SDS011;3513;47.664;9.162;2024-01-16T01:12:48;15.27;;;7.83;;
6947;SDS011;3513;47.664;9.162;2024-01-16T01:15:14;17.50;;;7.83;;
6947;SDS011;3513;47.664;9.162;2024-01-16T01:17:40;16.33;;;6.85;;
6947;SDS011;3513;47.664;9.162;2024-01-16T01:20:06;16.97;;;8.53;;
6947;SDS011;3513;47.664;9.162;2024-01-16T01:22:33;18.70;;;7.85;;
6947;SDS011;3513;47.664;9.162;2024-01-16T01:24:58;15.97;;;7.43;;
6947;SDS011;3513;47.664;9.162;2024-01-16T01:27:24;17.87;;;8.37;;
6947;SDS011;3513;47.664;9.162;2024-01-16T01:29:50;19.47;;;8.67;;
6947;SDS011;3513;47.664;9.162;2024-01-16T01:32:15;17.80;;;7.50;;
6947;SDS011;3513;47.664;9.162;2024-01-16T01:34:41;17.60;;;8.27;;
6947;SDS011;3513;47.664;9.162;2024-01-16T01:37:07;15.63;;;7.80;;
6947;SDS011;3513;47.664;9.162;2024-01-16T01:39:32;14.23;;;8.10;;
6947;SDS011;3513;47.664;9.162;2024-01-16T01:41:58;17.80;;;9.27;;
6947;SDS011;3513;47.664;9.162;2024-01-16T01:44:23;14.50;;;8.23;;
6947;SDS011;3513;47.664;9.162;2024-01-16T01:46:50;14.27;;;8.60;;
6947;SDS011;3513;47.664;9.162;2024-01-16T01:49:18;16.10;;;8.38;;
6947;SDS011;3513;47.664;9.162;2024-01-16T01:51:44;16.03;;;8.40;;
6947;SDS011;3513;47.664;9.162;2024-01-16T01:54:09;20.27;;;9.60;;
6947;SDS011;3513;47.664;9.162;2024-01-16T01:56:36;19.10;;;8.87;;
6947;SDS011;3513;47.664;9.162;2024-01-16T01:59:02;19.13;;;8.93;;
6947;SDS011;3513;47.664;9.162;2024-01-16T02:01:29;17.33;;;8.93;;
6947;SDS011;3513;47.664;9.162;2024-01-16T02:03:56;23.20;;;9.80;;
6947;SDS011;3513;47.664;9.162;2024-01-16T02:06:24;14.00;;;7.40;;
6947;SDS011;3513;47.664;9.162;2024-01-16T02:08:50;18.00;;;8.17;;
6947;SDS011;3513;47.664;9.162;2024-01-16T02:11:16;34.47;;;11.10;;
6947;SDS011;3513;47.664;9.162;2024-01-16T02:13:42;83.20;;;24.97;;
6947;SDS011;3513;47.664;9.162;2024-01-16T02:16:23;69.20;;;25.87;;
6947;SDS011;3513;47.664;9.162;2024-01-16T02:18:49;36.40;;;15.75;;
6947;SDS011;3513;47.664;9.162;2024-01-16T02:21:17;22.17;;;10.00;;
6947;SDS011;3513;47.664;9.162;2024-01-16T02:23:45;18.45;;;8.25;;
6947;SDS011;3513;47.664;9.162;2024-01-16T02:26:12;22.40;;;9.97;;
6947;SDS011;3513;47.664;9.162;2024-01-16T02:28:42;19.98;;;10.00;;
6947;SDS011;3513;47.664;9.162;2024-01-16T02:31:07;20.63;;;9.23;;
6947;SDS011;3513;47.664;9.162;2024-01-16T02:33:33;15.97;;;8.13;;
6947;SDS011;3513;47.664;9.162;2024-01-16T02:35:59;14.77;;;8.60;;
6947;SDS011;3513;47.664;9.162;2024-01-16T02:38:24;22.20;;;10.60;;
6947;SDS011;3513;47.664;9.162;2024-01-16T02:40:50;18.00;;;8.13;;
6947;SDS011;3513;47.664;9.162;2024-01-16T02:43:16;17.10;;;9.20;;
6947;SDS011;3513;47.664;9.162;2024-01-16T02:45:41;15.57;;;8.40;;
6947;SDS011;3513;47.664;9.162;2024-01-16T02:48:07;17.53;;;9.83;;
6947;SDS011;3513;47.664;9.162;2024-01-16T02:50:33;24.30;;;10.57;;
6947;SDS011;3513;47.664;9.162;2024-01-16T02:52:59;19.00;;;8.70;;
6947;SDS011;3513;47.664;9.162;2024-01-16T02:55:24;15.10;;;8.90;;
6947;SDS011;3513;47.664;9.162;2024-01-16T02:57:50;21.00;;;9.37;;
6947;SDS011;3513;47.664;9.162;2024-01-16T03:00:16;21.27;;;10.13;;
6947;SDS011;3513;47.664;9.162;2024-01-16T03:02:42;19.25;;;8.70;;
6947;SDS011;3513;47.664;9.162;2024-01-16T03:05:09;17.95;;;8.90;;
6947;SDS011;3513;47.664;9.162;2024-01-16T03:07:35;15.68;;;8.95;;
6947;SDS011;3513;47.664;9.162;2024-01-16T03:10:02;20.53;;;9.53;;
6947;SDS011;3513;47.664;9.162;2024-01-16T03:12:28;20.13;;;9.00;;
6947;SDS011;3513;47.664;9.162;2024-01-16T03:14:53;14.57;;;8.50;;
6947;SDS011;3513;47.664;9.162;2024-01-16T03:17:19;23.23;;;9.83;;
6947;SDS011;3513;47.664;9.162;2024-01-16T03:19:45;19.60;;;9.60;;
6947;SDS011;3513;47.664;9.162;2024-01-16T03:22:11;21.43;;;9.87;;
6947;SDS011;3513;47.664;9.162;2024-01-16T03:24:36;21.07;;;10.50;;
6947;SDS011;3513;47.664;9.162;2024-01-16T03:27:02;16.53;;;9.23;;
6947;SDS011;3513;47.664;9.162;2024-01-16T03:29:29;16.70;;;8.77;;
6947;SDS011;3513;47.664;9.162;2024-01-16T03:31:54;20.90;;;10.00;;
6947;SDS011;3513;47.664;9.162;2024-01-16T03:34:20;20.90;;;10.20;;
6947;SDS011;3513;47.664;9.162;2024-01-16T03:36:45;22.40;;;10.43;;
6947;SDS011;3513;47.664;9.162;2024-01-16T03:39:11;20.90;;;9.80;;
6947;SDS011;3513;47.664;9.162;2024-01-16T03:41:37;21.23;;;10.83;;
6947;SDS011;3513;47.664;9.162;2024-01-16T03:44:02;30.80;;;14.77;;
6947;SDS011;3513;47.664;9.162;2024-01-16T03:46:28;29.30;;;14.87;;
6947;SDS011;3513;47.664;9.162;2024-01-16T03:48:54;40.77;;;18.00;;
6947;SDS011;3513;47.664;9.162;2024-01-16T03:51:20;41.80;;;18.80;;
6947;SDS011;3513;47.664;9.162;2024-01-16T03:53:45;52.07;;;23.93;;
6947;SDS011;3513;47.664;9.162;2024-01-16T03:56:11;45.50;;;17.30;;
6947;SDS011;3513;47.664;9.162;2024-01-16T03:58:37;25.20;;;12.90;;
6947;SDS011;3513;47.664;9.162;2024-01-16T04:01:04;21.98;;;12.05;;
6947;SDS011;3513;47.664;9.162;2024-01-16T04:03:30;26.17;;;10.90;;
6947;SDS011;3513;47.664;9.162;2024-01-16T04:05:55;23.30;;;11.30;;
6947;SDS011;3513;47.664;9.162;2024-01-16T04:08:21;17.93;;;9.67;;
6947;SDS011;3513;47.664;9.162;2024-01-16T04:10:47;20.90;;;10.00;;
6947;SDS011;3513;47.664;9.162;2024-01-16T04:13:12;15.80;;;8.40;;
6947;SDS011;3513;47.664;9.162;2024-01-16T04:15:38;17.50;;;9.87;;
6947;SDS011;3513;47.664;9.162;2024-01-16T04:18:04;15.10;;;8.83;;
6947;SDS011;3513;47.664;9.162;2024-01-16T04:20:30;16.30;;;8.87;;
6947;SDS011;3513;47.664;9.162;2024-01-16T04:22:56;16.87;;;8.93;;
6947;SDS011;3513;47.664;9.162;2024-01-16T04:25:22;16.20;;;9.10;;
6947;SDS011;3513;47.664;9.162;2024-01-16T04:27:48;16.63;;;8.87;;
6947;SDS011;3513;47.664;9.162;2024-01-16T04:30:13;29.93;;;9.10;;
6947;SDS011;3513;47.664;9.162;2024-01-16T04:32:39;25.17;;;9.00;;
6947;SDS011;3513;47.664;9.162;2024-01-16T04:35:05;14.50;;;8.10;;
6947;SDS011;3513;47.664;9.162;2024-01-16T04:37:30;11.73;;;7.37;;
6947;SDS011;3513;47.664;9.162;2024-01-16T04:39:56;13.20;;;7.10;;
6947;SDS011;3513;47.664;9.162;2024-01-16T04:42:23;12.20;;;6.83;;
6947;SDS011;3513;47.664;9.162;2024-01-16T04:44:48;10.60;;;6.20;;
6947;SDS011;3513;47.664;9.162;2024-01-16T04:47:14;16.90;;;6.43;;
6947;SDS011;3513;47.664;9.162;2024-01-16T04:49:41;14.43;;;7.00;;
6947;SDS011;3513;47.664;9.162;2024-01-16T04:52:07;13.23;;;6.97;;
6947;SDS011;3513;47.664;9.162;2024-01-16T04:54:33;13.20;;;6.93;;
6947;SDS011;3513;47.664;9.162;2024-01-16T04:56:58;16.13;;;6.90;;
6947;SDS011;3513;47.664;9.162;2024-01-16T04:59:24;11.33;;;6.20;;
6947;SDS011;3513;47.664;9.162;2024-01-16T05:01:50;12.80;;;7.60;;
6947;SDS011;3513;47.664;9.162;2024-01-16T05:04:16;15.23;;;7.20;;
6947;SDS011;3513;47.664;9.162;2024-01-16T05:06:41;13.70;;;6.77;;
6947;SDS011;3513;47.664;9.162;2024-01-16T05:09:07;13.40;;;7.33;;
6947;SDS011;3513;47.664;9.162;2024-01-16T05:11:34;13.70;;;6.57;;
6947;SDS011;3513;47.664;9.162;2024-01-16T05:14:00;15.23;;;7.37;;
6947;SDS011;3513;47.664;9.162;2024-01-16T05:16:25;13.33;;;7.97;;
6947;SDS011;3513;47.664;9.162;2024-01-16T05:18:52;15.27;;;7.20;;
6947;SDS011;3513;47.664;9.162;2024-01-16T05:21:18;13.87;;;7.53;;
6947;SDS011;3513;47.664;9.162;2024-01-16T05:23:43;17.57;;;8.40;;
6947;SDS011;3513;47.664;9.162;2024-01-16T05:26:09;12.70;;;6.47;;
6947;SDS011;3513;47.664;9.162;2024-01-16T05:28:35;17.17;;;7.07;;
6947;SDS011;3513;47.664;9.162;2024-01-16T05:31:00;10.27;;;5.87;;
6947;SDS011;3513;47.664;9.162;2024-01-16T05:33:26;16.43;;;6.00;;
6947;SDS011;3513;47.664;9.162;2024-01-16T05:35:51;12.80;;;7.10;;
6947;SDS011;3513;47.664;9.162;2024-01-16T05:38:17;11.00;;;6.23;;
6947;SDS011;3513;47.664;9.162;2024-01-16T05:40:42;9.73;;;5.53;;
6947;SDS011;3513;47.664;9.162;2024-01-16T05:43:08;9.93;;;6.10;;
6947;SDS011;3513;47.664;9.162;2024-01-16T05:45:34;9.03;;;6.00;;
6947;SDS011;3513;47.664;9.162;2024-01-16T05:47:59;13.00;;;5.17;;
6947;SDS011;3513;47.664;9.162;2024-01-16T05:50:25;16.20;;;5.93;;
6947;SDS011;3513;47.664;9.162;2024-01-16T05:52:50;9.90;;;5.30;;
6947;SDS011;3513;47.664;9.162;2024-01-16T05:55:16;15.33;;;5.93;;
6947;SDS011;3513;47.664;9.162;2024-01-16T05:57:42;14.00;;;6.17;;
6947;SDS011;3513;47.664;9.162;2024-01-16T06:00:09;10.53;;;5.30;;
6947;SDS011;3513;47.664;9.162;2024-01-16T06:02:35;12.70;;;5.77;;
6947;SDS011;3513;47.664;9.162;2024-01-16T06:05:01;12.00;;;5.47;;
6947;SDS011;3513;47.664;9.162;2024-01-16T06:07:27;15.13;;;6.80;;
6947;SDS011;3513;47.664;9.162;2024-01-16T06:09:53;18.73;;;7.73;;
6947;SDS011;3513;47.664;9.162;2024-01-16T06:12:19;10.83;;;5.90;;
6947;SDS011;3513;47.664;9.162;2024-01-16T06:14:45;10.20;;;6.00;;
6947;SDS011;3513;47.664;9.162;2024-01-16T06:17:10;13.40;;;6.20;;
6947;SDS011;3513;47.664;9.162;2024-01-16T06:19:36;11.20;;;6.17;;
6947;SDS011;3513;47.664;9.162;2024-01-16T06:22:01;11.77;;;5.87;;
6947;SDS011;3513;47.664;9.162;2024-01-16T06:24:27;12.17;;;6.17;;
6947;SDS011;3513;47.664;9.162;2024-01-16T06:26:54;12.85;;;6.25;;
6947;SDS011;3513;47.664;9.162;2024-01-16T06:29:19;18.60;;;9.13;;
6947;SDS011;3513;47.664;9.162;2024-01-16T06:31:45;13.43;;;8.47;;
6947;SDS011;3513;47.664;9.162;2024-01-16T06:34:10;14.40;;;7.47;;
6947;SDS011;3513;47.664;9.162;2024-01-16T06:36:36;11.90;;;5.80;;
6947;SDS011;3513;47.664;9.162;2024-01-16T06:39:01;13.50;;;7.33;;
6947;SDS011;3513;47.664;9.162;2024-01-16T06:41:28;14.02;;;8.68;;
6947;SDS011;3513;47.664;9.162;2024-01-16T06:43:53;18.13;;;8.13;;
6947;SDS011;3513;47.664;9.162;2024-01-16T06:46:19;14.30;;;6.10;;
6947;SDS011;3513;47.664;9.162;2024-01-16T06:48:45;13.67;;;7.13;;
6947;SDS011;3513;47.664;9.162;2024-01-16T06:51:10;15.43;;;7.00;;
6947;SDS011;3513;47.664;9.162;2024-01-16T06:53:38;16.15;;;7.88;;
6947;SDS011;3513;47.664;9.162;2024-01-16T06:56:05;12.93;;;7.83;;
6947;SDS011;3513;47.664;9.162;2024-01-16T06:58:32;20.05;;;10.48;;
6947;SDS011;3513;47.664;9.162;2024-01-16T07:00:58;16.13;;;9.60;;
6947;SDS011;3513;47.664;9.162;2024-01-16T07:03:25;17.20;;;6.60;;
6947;SDS011;3513;47.664;9.162;2024-01-16T07:05:51;18.70;;;6.73;;
6947;SDS011;3513;47.664;9.162;2024-01-16T07:08:16;12.10;;;6.57;;
6947;SDS011;3513;47.664;9.162;2024-01-16T07:10:42;14.50;;;8.07;;
6947;SDS011;3513;47.664;9.162;2024-01-16T07:13:07;21.10;;;9.00;;
6947;SDS011;3513;47.664;9.162;2024-01-16T07:15:33;12.50;;;7.47;;
6947;SDS011;3513;47.664;9.162;2024-01-16T07:17:59;15.93;;;8.13;;
6947;SDS011;3513;47.664;9.162;2024-01-16T07:20:24;15.90;;;7.33;;
6947;SDS011;3513;47.664;9.162;2024-01-16T07:22:50;32.50;;;8.10;;
6947;SDS011;3513;47.664;9.162;2024-01-16T07:25:15;16.37;;;8.27;;
6947;SDS011;3513;47.664;9.162;2024-01-16T07:27:41;14.37;;;6.87;;
6947;SDS011;3513;47.664;9.162;2024-01-16T07:30:07;14.77;;;6.27;;
6947;SDS011;3513;47.664;9.162;2024-01-16T07:32:33;13.20;;;6.93;;
6947;SDS011;3513;47.664;9.162;2024-01-16T07:34:59;17.97;;;7.90;;
6947;SDS011;3513;47.664;9.162;2024-01-16T07:37:24;17.13;;;8.60;;
6947;SDS011;3513;47.664;9.162;2024-01-16T07:39:50;15.77;;;8.17;;
6947;SDS011;3513;47.664;9.162;2024-01-16T07:42:16;17.77;;;7.20;;
6947;SDS011;3513;47.664;9.162;2024-01-16T07:44:41;18.73;;;7.87;;
6947;SDS011;3513;47.664;9.162;2024-01-16T07:47:07;19.50;;;9.13;;
6947;SDS011;3513;47.664;9.162;2024-01-16T07:49:33;19.90;;;7.63;;
6947;SDS011;3513;47.664;9.162;2024-01-16T07:51:59;13.45;;;8.00;;
6947;SDS011;3513;47.664;9.162;2024-01-16T07:54:24;14.70;;;7.03;;
6947;SDS011;3513;47.664;9.162;2024-01-16T07:56:51;15.20;;;7.57;;
6947;SDS011;3513;47.664;9.162;2024-01-16T07:59:16;10.47;;;6.33;;
6947;SDS011;3513;47.664;9.162;2024-01-16T08:01:42;14.00;;;5.93;;
6947;SDS011;3513;47.664;9.162;2024-01-16T08:04:08;16.83;;;8.83;;
6947;SDS011;3513;47.664;9.162;2024-01-16T08:06:33;14.77;;;7.87;;
6947;SDS011;3513;47.664;9.162;2024-01-16T08:08:59;13.63;;;6.87;;
6947;SDS011;3513;47.664;9.162;2024-01-16T08:11:25;14.20;;;7.90;;
6947;SDS011;3513;47.664;9.162;2024-01-16T08:13:50;14.30;;;8.37;;
6947;SDS011;3513;47.664;9.162;2024-01-16T08:16:16;11.93;;;6.90;;
6947;SDS011;3513;47.664;9.162;2024-01-16T08:18:41;17.57;;;6.93;;
6947;SDS011;3513;47.664;9.162;2024-01-16T08:21:07;19.67;;;7.60;;
6947;SDS011;3513;47.664;9.162;2024-01-16T08:23:33;17.13;;;8.70;;
6947;SDS011;3513;47.664;9.162;2024-01-16T08:25:59;16.23;;;8.02;;
6947;SDS011;3513;47.664;9.162;2024-01-16T08:28:26;20.67;;;8.75;;
6947;SDS011;3513;47.664;9.162;2024-01-16T08:30:51;16.10;;;8.07;;
6947;SDS011;3513;47.664;9.162;2024-01-16T08:33:17;11.23;;;6.93;;
6947;SDS011;3513;47.664;9.162;2024-01-16T08:35:42;12.43;;;7.60;;
6947;SDS011;3513;47.664;9.162;2024-01-16T08:38:08;11.87;;;7.20;;
6947;SDS011;3513;47.664;9.162;2024-01-16T08:40:34;14.40;;;8.23;;
6947;SDS011;3513;47.664;9.162;2024-01-16T08:42:59;17.57;;;8.77;;
6947;SDS011;3513;47.664;9.162;2024-01-16T08:45:25;13.47;;;7.70;;
6947;SDS011;3513;47.664;9.162;2024-01-16T08:47:53;13.80;;;8.30;;
6947;SDS011;3513;47.664;9.162;2024-01-16T08:50:18;19.13;;;9.00;;
6947;SDS011;3513;47.664;9.162;2024-01-16T08:52:44;22.57;;;8.87;;
6947;SDS011;3513;47.664;9.162;2024-01-16T08:55:10;18.70;;;10.13;;
6947;SDS011;3513;47.664;9.162;2024-01-16T08:57:38;14.23;;;9.10;;
6947;SDS011;3513;47.664;9.162;2024-01-16T09:00:04;18.00;;;9.60;;
6947;SDS011;3513;47.664;9.162;2024-01-16T09:02:30;12.90;;;8.52;;
6947;SDS011;3513;47.664;9.162;2024-01-16T09:04:56;13.97;;;9.07;;
6947;SDS011;3513;47.664;9.162;2024-01-16T09:07:23;19.42;;;10.45;;
6947;SDS011;3513;47.664;9.162;2024-01-16T09:09:49;22.03;;;10.00;;
6947;SDS011;3513;47.664;9.162;2024-01-16T09:12:15;23.70;;;10.10;;
6947;SDS011;3513;47.664;9.162;2024-01-16T09:14:40;17.23;;;9.07;;
6947;SDS011;3513;47.664;9.162;2024-01-16T09:17:06;24.40;;;9.60;;
6947;SDS011;3513;47.664;9.162;2024-01-16T09:19:32;17.50;;;9.47;;
6947;SDS011;3513;47.664;9.162;2024-01-16T09:21:57;14.10;;;8.97;;
6947;SDS011;3513;47.664;9.162;2024-01-16T09:24:23;22.33;;;9.13;;
6947;SDS011;3513;47.664;9.162;2024-01-16T09:26:49;17.27;;;8.73;;
6947;SDS011;3513;47.664;9.162;2024-01-16T09:29:14;26.37;;;9.30;;
6947;SDS011;3513;47.664;9.162;2024-01-16T09:31:41;14.10;;;8.35;;
6947;SDS011;3513;47.664;9.162;2024-01-16T09:34:07;16.08;;;8.15;;
6947;SDS011;3513;47.664;9.162;2024-01-16T09:36:32;15.93;;;8.83;;
6947;SDS011;3513;47.664;9.162;2024-01-16T09:39:00;16.00;;;9.52;;
6947;SDS011;3513;47.664;9.162;2024-01-16T09:41:27;25.80;;;9.70;;
6947;SDS011;3513;47.664;9.162;2024-01-16T09:43:52;17.37;;;8.90;;
6947;SDS011;3513;47.664;9.162;2024-01-16T09:46:20;15.90;;;8.47;;
6947;SDS011;3513;47.664;9.162;2024-01-16T09:48:48;15.13;;;8.98;;
6947;SDS011;3513;47.664;9.162;2024-01-16T09:51:19;14.82;;;8.13;;
6947;SDS011;3513;47.664;9.162;2024-01-16T09:53:44;20.33;;;8.93;;
6947;SDS011;3513;47.664;9.162;2024-01-16T09:56:16;15.30;;;9.30;;
6947;SDS011;3513;47.664;9.162;2024-01-16T09:58:46;19.48;;;9.50;;
6947;SDS011;3513;47.664;9.162;2024-01-16T10:01:14;17.80;;;8.30;;
6947;SDS011;3513;47.664;9.162;2024-01-16T10:03:41;21.20;;;9.35;;
6947;SDS011;3513;47.664;9.162;2024-01-16T10:06:09;16.73;;;9.07;;
6947;SDS011;3513;47.664;9.162;2024-01-16T10:08:37;12.95;;;7.70;;
6947;SDS011;3513;47.664;9.162;2024-01-16T10:11:03;19.80;;;9.20;;
6947;SDS011;3513;47.664;9.162;2024-01-16T10:13:29;14.95;;;7.60;;
6947;SDS011;3513;47.664;9.162;2024-01-16T10:15:56;16.40;;;8.82;;
6947;SDS011;3513;47.664;9.162;2024-01-16T10:18:23;11.27;;;7.17;;
6947;SDS011;3513;47.664;9.162;2024-01-16T10:20:49;15.40;;;8.03;;
6947;SDS011;3513;47.664;9.162;2024-01-16T10:23:21;15.77;;;7.50;;
6947;SDS011;3513;47.664;9.162;2024-01-16T10:26:05;17.30;;;8.40;;
6947;SDS011;3513;47.664;9.162;2024-01-16T10:28:40;23.37;;;8.50;;
6947;SDS011;3513;47.664;9.162;2024-01-16T10:31:08;19.37;;;7.17;;
6947;SDS011;3513;47.664;9.162;2024-01-16T10:33:35;22.03;;;8.70;;
6947;SDS011;3513;47.664;9.162;2024-01-16T10:36:13;19.90;;;8.03;;
6947;SDS011;3513;47.664;9.162;2024-01-16T10:38:44;16.43;;;8.20;;
6947;SDS011;3513;47.664;9.162;2024-01-16T10:41:14;21.73;;;9.40;;
6947;SDS011;3513;47.664;9.162;2024-01-16T10:43:42;16.73;;;7.53;;
6947;SDS011;3513;47.664;9.162;2024-01-16T10:46:14;12.43;;;7.63;;
6947;SDS011;3513;47.664;9.162;2024-01-16T10:48:42;19.07;;;8.57;;
6947;SDS011;3513;47.664;9.162;2024-01-16T10:51:15;14.53;;;7.80;;
6947;SDS011;3513;47.664;9.162;2024-01-16T10:53:44;17.80;;;9.40;;
6947;SDS011;3513;47.664;9.162;2024-01-16T10:56:11;20.30;;;8.53;;
6947;SDS011;3513;47.664;9.162;2024-01-16T10:58:38;13.07;;;6.90;;
6947;SDS011;3513;47.664;9.162;2024-01-16T11:01:07;18.60;;;8.27;;
6947;SDS011;3513;47.664;9.162;2024-01-16T11:06:18;19.93;;;8.43;;
6947;SDS011;3513;47.664;9.162;2024-01-16T11:08:47;21.60;;;9.63;;
6947;SDS011;3513;47.664;9.162;2024-01-16T11:11:13;15.80;;;8.40;;
6947;SDS011;3513;47.664;9.162;2024-01-16T11:13:39;33.90;;;9.87;;
6947;SDS011;3513;47.664;9.162;2024-01-16T11:16:12;23.87;;;8.03;;
6947;SDS011;3513;47.664;9.162;2024-01-16T11:18:38;14.80;;;8.17;;
6947;SDS011;3513;47.664;9.162;2024-01-16T11:21:22;15.70;;;9.00;;
6947;SDS011;3513;47.664;9.162;2024-01-16T11:23:49;17.37;;;8.30;;
6947;SDS011;3513;47.664;9.162;2024-01-16T11:26:24;16.40;;;9.10;;
6947;SDS011;3513;47.664;9.162;2024-01-16T11:28:57;14.03;;;7.77;;
6947;SDS011;3513;47.664;9.162;2024-01-16T11:33:55;17.83;;;9.30;;
6947;SDS011;3513;47.664;9.162;2024-01-16T11:36:42;14.90;;;7.93;;
6947;SDS011;3513;47.664;9.162;2024-01-16T11:39:17;28.57;;;9.30;;
6947;SDS011;3513;47.664;9.162;2024-01-16T11:41:48;19.07;;;8.50;;
6947;SDS011;3513;47.664;9.162;2024-01-16T11:47:03;17.43;;;7.60;;
6947;SDS011;3513;47.664;9.162;2024-01-16T11:49:29;15.53;;;8.33;;
6947;SDS011;3513;47.664;9.162;2024-01-16T11:51:58;20.80;;;8.67;;
6947;SDS011;3513;47.664;9.162;2024-01-16T11:54:24;16.83;;;8.53;;
6947;SDS011;3513;47.664;9.162;2024-01-16T12:05:23;23.10;;;8.93;;
6947;SDS011;3513;47.664;9.162;2024-01-16T12:07:50;20.93;;;8.20;;
6947;SDS011;3513;47.664;9.162;2024-01-16T12:10:18;19.60;;;8.73;;
6947;SDS011;3513;47.664;9.162;2024-01-16T12:12:45;15.07;;;8.00;;
6947;SDS011;3513;47.664;9.162;2024-01-16T12:15:14;24.17;;;9.67;;
6947;SDS011;3513;47.664;9.162;2024-01-16T12:17:51;23.50;;;9.60;;
6947;SDS011;3513;47.664;9.162;2024-01-16T12:20:19;18.77;;;8.53;;
6947;SDS011;3513;47.664;9.162;2024-01-16T12:22:45;22.63;;;8.57;;
6947;SDS011;3513;47.664;9.162;2024-01-16T12:25:10;18.63;;;8.93;;
6947;SDS011;3513;47.664;9.162;2024-01-16T12:27:37;21.50;;;9.43;;
6947;SDS011;3513;47.664;9.162;2024-01-16T12:30:10;17.17;;;9.77;;
6947;SDS011;3513;47.664;9.162;2024-01-16T12:32:38;22.57;;;8.30;;
6947;SDS011;3513;47.664;9.162;2024-01-16T12:35:03;27.80;;;7.90;;
6947;SDS011;3513;47.664;9.162;2024-01-16T12:37:29;18.23;;;8.27;;
6947;SDS011;3513;47.664;9.162;2024-01-16T12:39:57;19.33;;;8.80;;
6947;SDS011;3513;47.664;9.162;2024-01-16T12:42:23;25.63;;;9.00;;
6947;SDS011;3513;47.664;9.162;2024-01-16T12:44:49;18.53;;;8.33;;
6947;SDS011;3513;47.664;9.162;2024-01-16T12:47:19;18.47;;;8.57;;
6947;SDS011;3513;47.664;9.162;2024-01-16T12:49:46;15.30;;;8.43;;
6947;SDS011;3513;47.664;9.162;2024-01-16T12:52:16;17.87;;;9.33;;
6947;SDS011;3513;47.664;9.162;2024-01-16T12:54:46;18.30;;;8.50;;
6947;SDS011;3513;47.664;9.162;2024-01-16T12:57:19;22.23;;;7.47;;
6947;SDS011;3513;47.664;9.162;2024-01-16T12:59:46;14.90;;;8.00;;
6947;SDS011;3513;47.664;9.162;2024-01-16T13:02:20;19.60;;;8.30;;
6947;SDS011;3513;47.664;9.162;2024-01-16T13:04:47;26.87;;;9.50;;
6947;SDS011;3513;47.664;9.162;2024-01-16T13:07:16;18.13;;;9.87;;
6947;SDS011;3513;47.664;9.162;2024-01-16T13:09:43;16.63;;;7.53;;
6947;SDS011;3513;47.664;9.162;2024-01-16T13:12:09;24.77;;;8.53;;
6947;SDS011;3513;47.664;9.162;2024-01-16T13:14:34;14.93;;;7.70;;
6947;SDS011;3513;47.664;9.162;2024-01-16T13:17:01;17.33;;;8.83;;
6947;SDS011;3513;47.664;9.162;2024-01-16T13:19:28;24.80;;;9.37;;
6947;SDS011;3513;47.664;9.162;2024-01-16T13:22:01;15.10;;;8.40;;
6947;SDS011;3513;47.664;9.162;2024-01-16T13:24:28;19.30;;;7.30;;
6947;SDS011;3513;47.664;9.162;2024-01-16T13:26:53;15.23;;;7.33;;
6947;SDS011;3513;47.664;9.162;2024-01-16T13:29:19;23.40;;;8.23;;
6947;SDS011;3513;47.664;9.162;2024-01-16T13:31:45;17.20;;;8.50;;
6947;SDS011;3513;47.664;9.162;2024-01-16T13:34:10;15.20;;;8.30;;
6947;SDS011;3513;47.664;9.162;2024-01-16T13:36:37;26.23;;;7.87;;
6947;SDS011;3513;47.664;9.162;2024-01-16T13:39:02;12.70;;;7.83;;
6947;SDS011;3513;47.664;9.162;2024-01-16T13:41:28;17.50;;;8.30;;
6947;SDS011;3513;47.664;9.162;2024-01-16T13:43:54;17.20;;;7.60;;
6947;SDS011;3513;47.664;9.162;2024-01-16T13:46:19;19.00;;;10.20;;
6947;SDS011;3513;47.664;9.162;2024-01-16T13:48:50;23.50;;;8.63;;
6947;SDS011;3513;47.664;9.162;2024-01-16T13:51:19;22.53;;;8.23;;
6947;SDS011;3513;47.664;9.162;2024-01-16T13:53:44;19.73;;;7.80;;
6947;SDS011;3513;47.664;9.162;2024-01-16T13:56:10;16.60;;;8.33;;
6947;SDS011;3513;47.664;9.162;2024-01-16T13:58:36;16.17;;;8.43;;
6947;SDS011;3513;47.664;9.162;2024-01-16T14:01:01;24.13;;;8.47;;
6947;SDS011;3513;47.664;9.162;2024-01-16T14:03:29;18.73;;;9.10;;
6947;SDS011;3513;47.664;9.162;2024-01-16T14:05:54;23.60;;;8.43;;
6947;SDS011;3513;47.664;9.162;2024-01-16T14:08:20;15.40;;;7.87;;
6947;SDS011;3513;47.664;9.162;2024-01-16T14:10:46;14.53;;;8.47;;
6947;SDS011;3513;47.664;9.162;2024-01-16T14:13:12;18.80;;;9.23;;
6947;SDS011;3513;47.664;9.162;2024-01-16T14:15:38;22.20;;;9.00;;
6947;SDS011;3513;47.664;9.162;2024-01-16T14:18:04;18.93;;;8.90;;
6947;SDS011;3513;47.664;9.162;2024-01-16T14:20:30;15.73;;;8.77;;
6947;SDS011;3513;47.664;9.162;2024-01-16T14:22:56;19.23;;;8.43;;
6947;SDS011;3513;47.664;9.162;2024-01-16T14:25:22;19.27;;;8.40;;
6947;SDS011;3513;47.664;9.162;2024-01-16T14:27:55;16.03;;;8.77;;
6947;SDS011;3513;47.664;9.162;2024-01-16T14:30:23;20.17;;;8.47;;
6947;SDS011;3513;47.664;9.162;2024-01-16T14:32:50;21.17;;;8.93;;
6947;SDS011;3513;47.664;9.162;2024-01-16T14:35:16;15.90;;;9.27;;
6947;SDS011;3513;47.664;9.162;2024-01-16T14:37:42;14.10;;;8.10;;
6947;SDS011;3513;47.664;9.162;2024-01-16T14:40:09;14.43;;;8.50;;
6947;SDS011;3513;47.664;9.162;2024-01-16T14:42:41;15.80;;;7.97;;
6947;SDS011;3513;47.664;9.162;2024-01-16T14:45:12;15.87;;;8.53;;
6947;SDS011;3513;47.664;9.162;2024-01-16T14:47:41;15.00;;;8.10;;
6947;SDS011;3513;47.664;9.162;2024-01-16T14:50:07;14.80;;;8.50;;
6947;SDS011;3513;47.664;9.162;2024-01-16T14:52:34;12.20;;;7.57;;
6947;SDS011;3513;47.664;9.162;2024-01-16T14:55:01;17.67;;;9.63;;
6947;SDS011;3513;47.664;9.162;2024-01-16T14:57:27;20.40;;;9.17;;
6947;SDS011;3513;47.664;9.162;2024-01-16T14:59:55;14.40;;;8.67;;
6947;SDS011;3513;47.664;9.162;2024-01-16T15:02:21;17.37;;;8.67;;
6947;SDS011;3513;47.664;9.162;2024-01-16T15:04:47;17.80;;;9.13;;
6947;SDS011;3513;47.664;9.162;2024-01-16T15:07:13;14.67;;;7.83;;
6947;SDS011;3513;47.664;9.162;2024-01-16T15:09:39;20.50;;;8.53;;
6947;SDS011;3513;47.664;9.162;2024-01-16T15:12:05;14.70;;;6.90;;
6947;SDS011;3513;47.664;9.162;2024-01-16T15:14:34;12.70;;;7.27;;